Heidelberg, Mississippi
Current Conditions -  °F | °C
As of 11:58 AM on Thursday 30 Oct 2014 (Local Time) from KMEI Reporting Station
Clear Clear  
Wind Chill: 68°   Ceiling: Unl
Heat Index: 68°   Visibility: 10mi
Dew Point: 36°   Wind: 9mph
Humidity: 31%   Direction: 360°N
Pressure: 30.13"   Gusts: 18mph
Location:  31.89°N, 88.98°W
Report Text: KMEI 301658Z 36008G16KT 10SM CLR 20/02 A3013 RMK AO2 SLP201 T02000022
Loading
Personal Weather Stations






























Interactive Weather Map
Tropical Storm Tracking
New forecast layout! Learn more

10-Day Weather Forecast

Advertisements
Track Severe Weather on mobile